Time;durP1;ratioP1;P1;durP2;ratioP2;P2;SDS_P1;SDS_P2;PMS_P1;PMS_P2;Temp;Humidity;BMP_temperature;BMP_pressure;BME280_temperature;BME280_humidity;BME280_pressure;Samples;Min_cycle;Max_cycle;Signal;HPM_P1;HPM_P2
2022/10/09 00:01:42;;;;;;;11.80;7.93;;;;;;;9.73;100.00;153858.09;5053080;28;20426;-86
2022/10/09 00:04:08;;;;;;;10.60;8.20;;;;;;;9.67;100.00;153842.56;5034999;28;20467;-86
2022/10/09 00:06:35;;;;;;;10.93;7.50;;;;;;;9.63;100.00;153832.25;5039916;28;20431;-86
2022/10/09 00:09:03;;;;;;;9.00;7.63;;;;;;;9.59;100.00;153821.88;5053277;28;20790;-86
2022/10/09 00:11:32;;;;;;;13.43;7.93;;;;;;;9.56;100.00;153815.41;5035406;28;20449;-86
2022/10/09 00:13:59;;;;;;;12.30;7.90;;;;;;;9.49;100.00;153797.31;5053145;28;20475;-86
2022/10/09 00:16:26;;;;;;;8.40;7.27;;;;;;;9.45;100.00;153786.94;5053175;28;20442;-86
2022/10/09 00:18:55;;;;;;;8.00;6.13;;;;;;;9.41;100.00;153776.59;5039998;28;20446;-86
2022/10/09 00:21:23;;;;;;;8.10;6.30;;;;;;;9.37;100.00;153766.22;5020195;28;20471;-86
2022/10/09 00:23:51;;;;;;;9.40;6.90;;;;;;;9.33;100.00;153755.91;5032907;28;20475;-86
2022/10/09 00:26:18;;;;;;;7.87;5.77;;;;;;;9.52;100.00;153803.78;5018111;28;20543;-86
2022/10/09 00:28:45;;;;;;;6.83;5.20;;;;;;;9.72;100.00;153855.50;5039249;28;20446;-85
2022/10/09 00:31:12;;;;;;;7.97;5.37;;;;;;;9.79;100.00;153874.91;5056842;28;20430;-86
2022/10/09 00:33:39;;;;;;;9.23;5.37;;;;;;;9.86;100.00;153890.44;5067784;28;20446;-86
2022/10/09 00:36:08;;;;;;;6.73;5.37;;;;;;;9.76;100.00;153867.19;5052782;28;20441;-86
2022/10/09 00:38:35;;;;;;;5.03;4.53;;;;;;;9.71;100.00;153854.25;5039418;28;20450;-86
2022/10/09 00:41:02;;;;;;;5.83;5.20;;;;;;;9.67;100.00;153843.88;5032792;28;20432;-86
2022/10/09 00:43:42;;;;;;;5.33;3.93;;;;;;;9.69;100.00;153849.03;5015509;28;20430;-86
2022/10/09 00:46:17;;;;;;;8.23;6.10;;;;;;;9.69;100.00;153849.03;5033435;28;20453;-87
2022/10/09 00:48:43;;;;;;;6.60;4.30;;;;;;;9.69;100.00;153847.72;5032143;28;20455;-86
2022/10/09 00:51:11;;;;;;;9.00;5.00;;;;;;;9.75;100.00;153864.56;5033169;28;20455;-86
2022/10/09 00:53:38;;;;;;;7.30;5.00;;;;;;;9.80;100.00;153877.50;5035027;28;20562;-86
2022/10/09 00:56:05;;;;;;;9.93;5.13;;;;;;;9.74;100.00;153861.97;5052415;28;20466;-86
2022/10/09 00:58:32;;;;;;;9.37;4.70;;;;;;;9.70;100.00;153851.63;5052729;28;20434;-86
2022/10/09 01:00:58;;;;;;;4.70;4.20;;;;;;;9.60;100.00;153824.47;5034568;28;20553;-86
2022/10/09 01:03:25;;;;;;;5.70;4.80;;;;;;;9.50;100.00;153799.91;5052968;28;20446;-86
2022/10/09 01:05:59;;;;;;;5.13;4.37;;;;;;;9.47;100.00;153792.13;5052894;28;20778;-86
2022/10/09 01:08:30;;;;;;;5.27;4.73;;;;;;;9.39;100.00;153771.44;5021647;28;20856;-86
2022/10/09 01:11:03;;;;;;;6.00;4.33;;;;;;;9.27;100.00;153740.38;5032694;28;20421;-86
2022/10/09 01:13:34;;;;;;;5.13;4.63;;;;;;;9.18;100.00;153718.41;5033227;28;20438;-86
2022/10/09 01:16:03;;;;;;;5.83;4.70;;;;;;;9.10;100.00;153696.41;5039597;28;20442;-86
2022/10/09 01:18:33;;;;;;;5.83;4.60;;;;;;;9.09;100.00;153693.81;5053238;28;20521;-86
2022/10/09 01:21:04;;;;;;;6.40;4.07;;;;;;;9.01;100.00;153673.13;5044616;28;20428;-86
2022/10/09 01:23:50;;;;;;;4.67;4.00;;;;;;;8.99;100.00;153667.97;5033281;28;20436;-86
2022/10/09 01:26:32;;;;;;;5.60;4.47;;;;;;;8.93;100.00;153652.44;5032804;28;20531;-86
2022/10/09 01:29:05;;;;;;;6.83;4.30;;;;;;;8.89;100.00;153642.13;5015232;28;20931;-86
2022/10/09 01:31:35;;;;;;;4.87;4.20;;;;;;;8.87;100.00;153638.22;5032505;28;20527;-86
2022/10/09 01:34:03;;;;;;;6.80;4.97;;;;;;;8.91;100.00;153647.28;5049755;28;20501;-86
2022/10/09 01:36:30;;;;;;;7.20;4.73;;;;;;;9.07;100.00;153688.66;5052220;28;20438;-86
2022/10/09 01:38:57;;;;;;;8.93;5.10;;;;;;;9.23;100.00;153728.75;5045093;28;21074;-86
2022/10/09 01:41:24;;;;;;;6.40;5.37;;;;;;;9.26;100.00;153737.81;5032618;28;20536;-86
2022/10/09 01:43:51;;;;;;;6.57;4.43;;;;;;;9.35;100.00;153759.75;5024829;28;20859;-84
2022/10/09 01:46:21;;;;;;;5.57;4.47;;;;;;;9.39;100.00;153770.13;5055416;28;20442;-84
2022/10/09 01:48:53;;;;;;;4.83;4.27;;;;;;;9.36;100.00;153763.66;5056090;28;20792;-85
2022/10/09 01:51:22;;;;;;;10.80;5.50;;;;;;;9.37;100.00;153764.97;5038124;28;20431;-85
2022/10/09 01:53:50;;;;;;;7.00;4.73;;;;;;;9.40;100.00;153772.75;5019995;28;20527;-85
2022/10/09 01:56:20;;;;;;;8.30;5.87;;;;;;;9.43;100.00;153781.75;5036360;28;20474;-85
2022/10/09 01:58:52;;;;;;;6.00;4.53;;;;;;;9.43;100.00;153781.75;5037705;28;20442;-85
2022/10/09 02:01:25;;;;;;;5.70;4.50;;;;;;;9.43;100.00;153781.75;5038226;28;20813;-85
2022/10/09 02:03:53;;;;;;;4.93;4.10;;;;;;;9.48;100.00;153794.69;5037227;28;20529;-85
2022/10/09 02:06:19;;;;;;;9.20;4.33;;;;;;;9.48;100.00;153793.41;5055503;28;20910;-86
2022/10/09 02:08:49;;;;;;;4.37;3.77;;;;;;;9.48;100.00;153794.69;5037594;28;20430;-86
2022/10/09 02:11:16;;;;;;;5.37;4.70;;;;;;;9.41;100.00;153776.59;5037830;28;20434;-86
2022/10/09 02:13:44;;;;;;;6.23;4.57;;;;;;;9.37;100.00;153766.22;5054962;28;20443;-85
2022/10/09 02:16:15;;;;;;;5.67;4.60;;;;;;;9.38;100.00;153767.53;5055619;28;20534;-85
2022/10/09 02:18:46;;;;;;;6.43;5.00;;;;;;;9.39;100.00;153771.44;5055855;28;20439;-85
2022/10/09 02:21:15;;;;;;;6.50;4.87;;;;;;;9.37;100.00;153766.22;5036916;28;20435;-85
2022/10/09 02:23:44;;;;;;;6.93;4.73;;;;;;;9.37;100.00;153764.97;5051183;28;20836;-85
2022/10/09 02:26:11;;;;;;;6.60;4.80;;;;;;;9.36;100.00;153762.38;5017722;28;21012;-86
2022/10/09 02:28:38;;;;;;;5.03;4.10;;;;;;;9.31;100.00;153750.75;5001321;28;20474;-86
2022/10/09 02:31:10;;;;;;;10.50;4.57;;;;;;;9.24;100.00;153732.59;5027524;28;20482;-86
2022/10/09 02:33:37;;;;;;;8.83;5.53;;;;;;;9.25;100.00;153735.22;5055438;28;20486;-85
2022/10/09 02:36:05;;;;;;;4.87;4.47;;;;;;;9.25;100.00;153735.22;5055109;28;20431;-86
2022/10/09 02:38:31;;;;;;;9.30;6.10;;;;;;;9.28;100.00;153742.97;5037314;28;20547;-86
2022/10/09 02:40:59;;;;;;;5.40;4.30;;;;;;;9.26;100.00;153736.50;5054766;28;20450;-86
2022/10/09 02:43:25;;;;;;;6.20;4.47;;;;;;;9.27;100.00;153740.38;5046162;28;20490;-86
2022/10/09 02:45:52;;;;;;;8.93;5.90;;;;;;;9.26;100.00;153736.50;5036676;28;20471;-86
2022/10/09 02:48:18;;;;;;;5.57;4.30;;;;;;;9.26;100.00;153737.81;5055279;28;20921;-86
2022/10/09 02:50:45;;;;;;;5.27;4.40;;;;;;;9.27;100.00;153739.06;5019850;28;20469;-85
2022/10/09 02:53:13;;;;;;;4.70;4.00;;;;;;;9.28;100.00;153741.69;5042040;28;20450;-85
2022/10/09 02:55:40;;;;;;;5.40;4.80;;;;;;;9.22;100.00;153726.13;5032890;28;20511;-85
2022/10/09 02:58:07;;;;;;;5.70;3.90;;;;;;;9.20;100.00;153722.28;5026747;28;20504;-85
2022/10/09 03:00:33;;;;;;;6.17;3.97;;;;;;;9.20;100.00;153722.28;5054319;28;20847;-86
2022/10/09 03:03:00;;;;;;;7.47;4.30;;;;;;;9.22;100.00;153726.13;5055025;28;21034;-86
2022/10/09 03:05:26;;;;;;;6.13;4.57;;;;;;;9.22;100.00;153727.44;5054520;28;20466;-85
2022/10/09 03:07:53;;;;;;;6.50;4.07;;;;;;;9.26;100.00;153736.50;5036619;28;20453;-86
2022/10/09 03:10:21;;;;;;;4.80;4.10;;;;;;;9.21;100.00;153723.59;5036364;28;20439;-86
2022/10/09 03:12:48;;;;;;;5.23;3.50;;;;;;;9.23;100.00;153730.03;5036746;28;20571;-85
2022/10/09 03:15:15;;;;;;;4.40;3.73;;;;;;;9.26;100.00;153737.81;5054435;28;20438;-85
2022/10/09 03:17:41;;;;;;;4.77;3.77;;;;;;;9.18;100.00;153717.13;5054397;28;20462;-85
2022/10/09 03:20:09;;;;;;;5.00;4.20;;;;;;;9.23;100.00;153730.03;5054269;28;20450;-85
2022/10/09 03:22:35;;;;;;;5.77;3.97;;;;;;;9.17;100.00;153714.50;5054343;28;20442;-86
2022/10/09 03:25:02;;;;;;;5.83;4.07;;;;;;;9.17;100.00;153714.50;5053811;28;20569;-85
2022/10/09 03:27:30;;;;;;;5.30;4.00;;;;;;;9.13;100.00;153704.19;5053808;28;20450;-85
2022/10/09 03:29:57;;;;;;;5.23;3.87;;;;;;;9.12;100.00;153702.88;5036143;28;20442;-85
2022/10/09 03:32:24;;;;;;;5.63;3.77;;;;;;;9.11;100.00;153698.97;5036318;28;20535;-85
2022/10/09 03:34:50;;;;;;;7.43;5.17;;;;;;;9.10;100.00;153697.72;5054145;28;20423;-85
2022/10/09 03:37:18;;;;;;;4.83;4.37;;;;;;;9.08;100.00;153692.50;5053879;28;20505;-85
2022/10/09 03:39:44;;;;;;;6.67;3.90;;;;;;;9.06;100.00;153686.06;5035514;28;20485;-85
2022/10/09 03:42:11;;;;;;;7.23;4.40;;;;;;;9.04;100.00;153680.88;5035972;28;20471;-85
2022/10/09 03:44:39;;;;;;;5.30;4.50;;;;;;;9.05;100.00;153683.50;5053564;28;20439;-85
2022/10/09 03:47:06;;;;;;;6.00;3.97;;;;;;;9.04;100.00;153680.88;5053469;28;20456;-85
2022/10/09 03:49:32;;;;;;;10.03;4.93;;;;;;;9.04;100.00;153680.88;5053734;28;20431;-85
2022/10/09 03:51:59;;;;;;;5.30;4.40;;;;;;;9.02;100.00;153675.72;5053845;28;20441;-85
2022/10/09 03:54:26;;;;;;;9.60;4.20;;;;;;;9.04;100.00;153680.88;5035407;28;20451;-85
2022/10/09 03:56:52;;;;;;;7.60;4.80;;;;;;;9.09;100.00;153693.81;5035396;28;20481;-85
2022/10/09 03:59:19;;;;;;;4.83;3.90;;;;;;;9.07;100.00;153688.66;5053635;28;20423;-85
2022/10/09 04:01:47;;;;;;;5.90;4.20;;;;;;;9.06;100.00;153686.06;5035860;28;20778;-85
2022/10/09 04:04:14;;;;;;;6.27;3.97;;;;;;;9.12;100.00;153701.59;5035701;28;21003;-85
2022/10/09 04:06:40;;;;;;;6.00;4.20;;;;;;;9.06;100.00;153686.06;5052849;28;20477;-85
2022/10/09 04:09:08;;;;;;;6.43;5.03;;;;;;;8.98;100.00;153665.34;5035615;28;20443;-85
2022/10/09 04:11:35;;;;;;;5.80;4.17;;;;;;;8.95;100.00;153657.59;5051473;28;20522;-85
2022/10/09 04:14:02;;;;;;;5.37;4.00;;;;;;;9.01;100.00;153674.44;5015773;28;20530;-85
2022/10/09 04:16:28;;;;;;;4.70;4.23;;;;;;;8.99;100.00;153669.25;5037401;28;20874;-85
2022/10/09 04:18:56;;;;;;;5.83;4.27;;;;;;;9.00;100.00;153670.56;5027419;28;20458;-85
2022/10/09 04:21:23;;;;;;;7.37;4.30;;;;;;;8.99;100.00;153667.97;5052856;28;20471;-85
2022/10/09 04:23:50;;;;;;;6.77;4.10;;;;;;;8.98;100.00;153665.34;5053381;28;20439;-85
2022/10/09 04:26:17;;;;;;;9.20;4.43;;;;;;;8.98;100.00;153665.34;5035232;28;20471;-85
2022/10/09 04:28:44;;;;;;;8.50;4.80;;;;;;;8.95;100.00;153657.59;5053155;28;20423;-85
2022/10/09 04:31:10;;;;;;;4.70;4.03;;;;;;;8.95;100.00;153657.59;5019021;28;20443;-85
2022/10/09 04:33:37;;;;;;;7.50;4.40;;;;;;;8.94;100.00;153655.03;5053677;28;20439;-85
2022/10/09 04:36:05;;;;;;;6.23;4.17;;;;;;;8.94;100.00;153655.03;5052390;28;20449;-85
2022/10/09 04:38:32;;;;;;;6.33;4.53;;;;;;;8.93;100.00;153653.72;5051589;28;20786;-85
2022/10/09 04:40:59;;;;;;;5.40;4.43;;;;;;;8.93;100.00;153653.72;5035239;28;20433;-85
2022/10/09 04:43:26;;;;;;;5.90;4.30;;;;;;;8.91;100.00;153648.56;5053703;28;20777;-85
2022/10/09 04:45:53;;;;;;;5.03;4.53;;;;;;;8.94;100.00;153655.03;5052513;28;20474;-85
2022/10/09 04:48:20;;;;;;;4.37;3.53;;;;;;;8.93;100.00;153653.72;5052285;28;20447;-85
2022/10/09 04:50:47;;;;;;;4.90;4.40;;;;;;;8.94;100.00;153656.34;5047943;28;20444;-85
2022/10/09 04:53:15;;;;;;;6.10;5.10;;;;;;;8.96;100.00;153660.19;5018853;28;20936;-85
2022/10/09 04:55:43;;;;;;;5.03;3.53;;;;;;;9.19;100.00;153719.69;5045546;28;20656;-84
2022/10/09 04:58:10;;;;;;;9.70;4.67;;;;;;;9.08;100.00;153692.50;5030026;28;20455;-85
2022/10/09 05:00:39;;;;;;;8.43;4.23;;;;;;;9.02;100.00;153675.72;5052786;28;20427;-85
2022/10/09 05:03:06;;;;;;;5.50;3.93;;;;;;;9.03;100.00;153678.28;5035371;28;20435;-85
2022/10/09 05:05:33;;;;;;;5.50;4.40;;;;;;;9.00;100.00;153670.56;5052442;28;20552;-85
2022/10/09 05:08:00;;;;;;;5.87;4.50;;;;;;;8.97;100.00;153662.81;5051516;28;20456;-85
2022/10/09 05:10:28;;;;;;;5.57;4.00;;;;;;;8.90;100.00;153645.97;5034889;28;20443;-85
2022/10/09 05:12:54;;;;;;;6.00;4.27;;;;;;;8.85;100.00;153631.75;5052490;28;20435;-85
2022/10/09 05:15:21;;;;;;;6.70;4.60;;;;;;;8.86;100.00;153634.34;5051462;28;20517;-85
2022/10/09 05:17:47;;;;;;;8.40;4.10;;;;;;;8.86;100.00;153634.34;5053348;28;20455;-85
2022/10/09 05:20:14;;;;;;;5.37;4.60;;;;;;;8.86;100.00;153634.34;5049904;28;20987;-85
2022/10/09 05:22:43;;;;;;;6.37;4.90;;;;;;;8.83;100.00;153626.59;5055087;28;20457;-85
2022/10/09 05:25:10;;;;;;;6.93;4.83;;;;;;;8.89;100.00;153643.41;5035113;28;20502;-85
2022/10/09 05:27:38;;;;;;;5.40;4.90;;;;;;;8.88;100.00;153639.50;5055218;28;20457;-85
2022/10/09 05:30:06;;;;;;;6.10;5.50;;;;;;;8.92;100.00;153651.13;5037244;28;21004;-85
2022/10/09 05:32:33;;;;;;;6.70;4.67;;;;;;;8.87;100.00;153638.22;5045309;28;20813;-85
2022/10/09 05:34:59;;;;;;;8.13;5.90;;;;;;;8.79;100.00;153616.25;5035836;28;20847;-85
2022/10/09 05:37:26;;;;;;;6.63;5.17;;;;;;;8.78;100.00;153613.66;5056158;28;20465;-85
2022/10/09 05:39:53;;;;;;;6.93;4.63;;;;;;;8.74;100.00;153603.28;5055507;28;20458;-85
2022/10/09 05:42:19;;;;;;;7.80;5.47;;;;;;;8.72;100.00;153599.44;5055398;28;20442;-85
2022/10/09 05:44:47;;;;;;;5.40;4.80;;;;;;;8.72;100.00;153598.13;5038057;28;20542;-85
2022/10/09 05:47:16;;;;;;;9.30;5.13;;;;;;;8.69;100.00;153590.38;5041398;28;20467;-86
2022/10/09 05:49:43;;;;;;;7.00;5.87;;;;;;;8.74;100.00;153603.28;5044234;28;20823;-85
2022/10/09 05:52:10;;;;;;;5.83;4.97;;;;;;;8.68;100.00;153587.81;5052602;28;20454;-85
2022/10/09 05:54:36;;;;;;;7.20;5.43;;;;;;;8.69;100.00;153590.38;5034757;28;20949;-85
2022/10/09 05:57:03;;;;;;;6.03;5.30;;;;;;;8.70;100.00;153594.28;5052336;28;20872;-85
2022/10/09 05:59:30;;;;;;;5.60;4.60;;;;;;;8.79;100.00;153616.25;5053852;28;20451;-85
2022/10/09 06:01:58;;;;;;;6.80;5.47;;;;;;;8.78;100.00;153613.66;5054059;28;20505;-85
2022/10/09 06:04:25;;;;;;;6.43;5.20;;;;;;;8.79;100.00;153616.25;5050079;28;20965;-86
2022/10/09 06:06:52;;;;;;;9.90;5.23;;;;;;;8.80;100.00;153618.81;5035693;28;20489;-85
2022/10/09 06:09:21;;;;;;;6.67;4.80;;;;;;;8.74;100.00;153604.59;5035626;28;20791;-86
2022/10/09 06:11:48;;;;;;;8.27;5.40;;;;;;;8.75;100.00;153605.91;5054053;28;20459;-85
2022/10/09 06:14:14;;;;;;;6.90;5.20;;;;;;;8.70;100.00;153592.97;5054146;28;20447;-86
2022/10/09 06:16:42;;;;;;;5.57;5.07;;;;;;;8.77;100.00;153612.34;5054467;28;20485;-86
2022/10/09 06:19:13;;;;;;;5.87;5.27;;;;;;;8.92;100.00;153649.88;5042527;28;20501;-85
2022/10/09 06:21:39;;;;;;;7.83;5.53;;;;;;;9.15;100.00;153709.34;5051996;28;20461;-85
2022/10/09 06:24:07;;;;;;;6.63;4.20;;;;;;;9.25;100.00;153735.22;5034978;28;20977;-86
2022/10/09 06:26:34;;;;;;;8.03;4.80;;;;;;;9.40;100.00;153772.75;5035156;28;20475;-85
2022/10/09 06:29:02;;;;;;;7.67;4.33;;;;;;;9.60;100.00;153825.78;5059300;28;20450;-86
2022/10/09 06:31:30;;;;;;;8.50;5.30;;;;;;;9.75;100.00;153864.56;5050372;28;20450;-86
2022/10/09 06:33:59;;;;;;;5.03;4.20;;;;;;;10.04;100.00;153937.03;5053403;28;20759;-86
2022/10/09 06:36:28;;;;;;;8.23;5.13;;;;;;;10.26;100.00;153995.34;5036715;28;20469;-85
2022/10/09 06:38:55;;;;;;;7.53;5.50;;;;;;;10.55;100.00;154069.13;5035602;28;20454;-86
2022/10/09 06:41:23;;;;;;;5.50;4.10;;;;;;;10.69;100.00;154104.09;5034741;28;20537;-86
2022/10/09 06:43:51;;;;;;;7.20;5.00;;;;;;;10.97;96.20;154176.59;5052723;28;20486;-86
2022/10/09 06:46:19;;;;;;;4.37;3.97;;;;;;;11.16;95.98;154224.53;5052297;28;20997;-86
2022/10/09 06:48:46;;;;;;;5.87;4.53;;;;;;;11.41;95.46;154289.34;5033796;28;20461;-86
2022/10/09 06:51:13;;;;;;;5.30;4.80;;;;;;;11.53;94.87;154320.41;5032597;28;20453;-85
2022/10/09 06:53:43;;;;;;;5.13;4.23;;;;;;;11.66;93.16;154354.09;5052264;28;20459;-85
2022/10/09 06:56:10;;;;;;;6.50;4.70;;;;;;;11.79;91.03;154386.53;5032887;28;20869;-86
2022/10/09 06:58:37;;;;;;;5.37;4.80;;;;;;;11.96;91.49;154431.94;5026509;28;20443;-86
2022/10/09 07:01:06;;;;;;;6.03;4.40;;;;;;;12.12;91.30;154473.41;5058584;28;20454;-86
2022/10/09 07:03:33;;;;;;;5.20;4.43;;;;;;;12.29;90.47;154514.84;5031943;28;20451;-86
2022/10/09 07:06:07;;;;;;;5.00;4.47;;;;;;;12.49;88.03;154566.75;5050004;28;20970;-86
2022/10/09 07:08:35;;;;;;;6.60;4.37;;;;;;;12.59;87.02;154592.69;5037645;28;20875;-86
2022/10/09 07:11:09;;;;;;;5.17;4.00;;;;;;;12.66;86.98;154610.81;5050831;28;20443;-86
2022/10/09 07:13:36;;;;;;;5.77;4.47;;;;;;;12.86;85.81;154662.72;5051920;28;20472;-86
2022/10/09 07:16:03;;;;;;;5.47;3.87;;;;;;;12.97;83.77;154691.28;5052456;28;20533;-86
2022/10/09 07:18:29;;;;;;;4.50;3.57;;;;;;;13.13;84.02;154731.53;5015848;28;20469;-75
2022/10/09 07:20:56;;;;;;;4.73;3.73;;;;;;;13.40;83.56;154802.88;5032807;28;20550;-73
2022/10/09 07:23:22;;;;;;;6.67;4.27;;;;;;;13.74;83.58;154888.56;5050469;28;20459;-73
2022/10/09 07:25:49;;;;;;;3.70;3.33;;;;;;;13.87;81.76;154922.31;5044965;28;20471;-73
2022/10/09 07:28:17;;;;;;;4.60;4.20;;;;;;;14.00;80.16;154956.06;5029522;28;20458;-73
2022/10/09 07:30:44;;;;;;;8.90;4.07;;;;;;;13.88;78.94;154924.88;5025308;28;20450;-73
2022/10/09 07:33:10;;;;;;;6.17;4.20;;;;;;;13.89;78.85;154927.50;5030219;28;20870;-73
2022/10/09 07:35:37;;;;;;;4.83;3.63;;;;;;;13.85;80.61;154918.38;5029430;28;20465;-73
2022/10/09 07:38:04;;;;;;;4.60;3.87;;;;;;;13.95;80.62;154943.09;5022440;28;20487;-73
2022/10/09 07:40:33;;;;;;;4.90;3.80;;;;;;;14.08;77.88;154976.84;5030448;28;20494;-73
2022/10/09 07:43:00;;;;;;;6.50;5.40;;;;;;;14.12;77.72;154985.88;5027667;28;20474;-74
2022/10/09 07:45:28;;;;;;;5.40;4.10;;;;;;;14.05;78.18;154969.03;5046208;28;20933;-73
2022/10/09 07:47:55;;;;;;;5.83;3.73;;;;;;;13.96;77.31;154946.94;5046815;28;20478;-73
2022/10/09 07:50:22;;;;;;;5.13;3.70;;;;;;;13.87;77.24;154923.56;5030095;28;20486;-74
2022/10/09 07:52:48;;;;;;;6.07;3.43;;;;;;;13.97;78.31;154949.56;5054081;28;20489;-73
2022/10/09 07:55:15;;;;;;;4.77;4.03;;;;;;;14.23;77.58;155015.78;5037916;28;20474;-74
2022/10/09 07:57:42;;;;;;;4.80;3.60;;;;;;;14.02;77.59;154961.25;5022163;28;20525;-74
2022/10/09 08:00:10;;;;;;;5.07;4.10;;;;;;;13.88;76.77;154924.88;5029756;28;20451;-74
2022/10/09 08:02:40;;;;;;;4.10;3.70;;;;;;;13.50;77.29;154826.25;5031513;28;20594;-75
2022/10/09 08:05:10;;;;;;;4.03;3.13;;;;;;;13.53;79.11;154834.06;5053783;28;20461;-74
2022/10/09 08:07:37;;;;;;;3.83;3.27;;;;;;;13.60;78.47;154852.22;5029234;28;20474;-74
2022/10/09 08:10:04;;;;;;;6.67;3.57;;;;;;;13.55;76.92;154839.22;5048733;28;20458;-73
2022/10/09 08:12:30;;;;;;;3.47;3.07;;;;;;;13.42;76.66;154806.81;5050694;28;20453;-86
2022/10/09 08:14:57;;;;;;;6.07;3.83;;;;;;;13.56;76.46;154841.78;5050522;28;20523;-83
2022/10/09 08:17:24;;;;;;;8.40;3.93;;;;;;;13.48;75.94;154822.34;5051625;28;20545;-83
2022/10/09 08:19:52;;;;;;;7.30;3.60;;;;;;;13.30;76.85;154776.94;5052196;28;20474;-84
2022/10/09 08:22:18;;;;;;;5.60;3.40;;;;;;;13.27;77.06;154769.13;5051200;28;20513;-74
2022/10/09 08:24:46;;;;;;;5.13;3.20;;;;;;;12.95;77.58;154686.06;5020090;28;20447;-76
2022/10/09 08:27:12;;;;;;;7.07;3.80;;;;;;;12.75;79.03;154635.50;5052618;28;20470;-75
2022/10/09 08:29:39;;;;;;;5.73;3.80;;;;;;;12.77;78.18;154639.38;5021235;28;20474;-76
2022/10/09 08:32:06;;;;;;;4.43;3.40;;;;;;;13.11;77.12;154727.63;5045439;28;20465;-76
2022/10/09 08:34:32;;;;;;;4.10;3.53;;;;;;;12.71;78.31;154623.78;5020262;28;20443;-76
2022/10/09 08:37:00;;;;;;;6.83;3.63;;;;;;;12.86;78.58;154662.72;5051549;28;20466;-76
2022/10/09 08:39:29;;;;;;;5.30;3.70;;;;;;;12.94;79.03;154682.19;5021456;28;20806;-75
2022/10/09 08:42:00;;;;;;;6.00;3.80;;;;;;;12.64;78.49;154605.66;5028350;28;20459;-75
2022/10/09 08:44:29;;;;;;;5.10;3.60;;;;;;;12.85;79.07;154660.13;5006037;28;20452;-75
2022/10/09 08:47:00;;;;;;;3.27;2.97;;;;;;;12.82;80.28;154652.31;5029546;28;20470;-76
2022/10/09 08:49:32;;;;;;;4.00;3.60;;;;;;;13.00;79.66;154697.75;5027225;28;20837;-76
2022/10/09 08:52:10;;;;;;;10.73;4.90;;;;;;;13.08;78.22;154719.81;5045775;28;20473;-76
2022/10/09 08:54:39;;;;;;;3.90;3.47;;;;;;;12.94;78.56;154682.19;5049961;28;20572;-76
2022/10/09 08:57:11;;;;;;;4.80;3.50;;;;;;;12.99;80.04;154696.47;5056983;28;20479;-76
2022/10/09 08:59:38;;;;;;;3.33;2.77;;;;;;;13.01;78.57;154700.31;5024648;28;20916;-76
2022/10/09 09:02:17;;;;;;;4.20;3.20;;;;;;;12.95;78.04;154686.06;5032168;28;20455;-76
2022/10/09 09:04:50;;;;;;;4.33;3.13;;;;;;;13.06;79.01;154714.59;5051283;28;20529;-76
2022/10/09 09:07:26;;;;;;;3.97;3.00;;;;;;;13.07;78.84;154717.25;5047399;28;20564;-76
2022/10/09 09:09:55;;;;;;;6.80;2.97;;;;;;;13.24;79.51;154760.03;5047238;28;20442;-76
2022/10/09 09:12:28;;;;;;;3.37;3.00;;;;;;;13.34;78.82;154787.28;5046927;28;20472;-76
2022/10/09 09:15:04;;;;;;;4.83;3.20;;;;;;;13.35;77.93;154789.91;5050887;28;20469;-76
2022/10/09 09:17:37;;;;;;;3.23;2.83;;;;;;;13.57;77.07;154845.72;5026692;28;20948;-76
2022/10/09 09:20:13;;;;;;;3.20;2.63;;;;;;;13.55;74.74;154839.22;5024298;28;20960;-76
2022/10/09 09:22:43;;;;;;;4.40;3.10;;;;;;;13.26;75.45;154766.53;5022862;28;20477;-76
2022/10/09 09:25:18;;;;;;;5.63;3.17;;;;;;;13.28;76.30;154770.44;5041474;28;20447;-75
2022/10/09 09:27:46;;;;;;;4.20;3.03;;;;;;;13.35;75.14;154789.91;5033371;28;20589;-76
2022/10/09 09:30:16;;;;;;;9.63;3.10;;;;;;;13.39;75.91;154800.31;5047658;28;20450;-76
2022/10/09 09:32:49;;;;;;;3.20;2.53;;;;;;;13.50;75.70;154826.25;5050911;28;20786;-74
2022/10/09 09:35:21;;;;;;;3.43;2.57;;;;;;;13.53;75.45;154835.31;5023054;28;20952;-76
2022/10/09 09:37:49;;;;;;;4.73;3.30;;;;;;;13.46;74.19;154817.16;5030781;28;20479;-76
2022/10/09 09:40:18;;;;;;;2.80;2.43;;;;;;;13.57;73.42;154845.72;5045345;28;21010;-76
2022/10/09 09:42:45;;;;;;;3.47;2.40;;;;;;;13.55;74.27;154840.53;5025797;28;20870;-76
2022/10/09 09:45:17;;;;;;;3.30;2.50;;;;;;;13.62;72.93;154858.69;5052770;28;20933;-76
2022/10/09 09:47:46;;;;;;;5.30;2.20;;;;;;;13.55;71.76;154840.53;5047627;28;20483;-76
2022/10/09 09:50:13;;;;;;;3.20;2.13;;;;;;;13.60;72.73;154853.50;5033943;28;20426;-76
2022/10/09 09:52:42;;;;;;;4.27;2.40;;;;;;;13.61;72.50;154854.81;5051034;28;20795;-76
2022/10/09 09:55:24;;;;;;;2.70;2.00;;;;;;;13.67;73.33;154871.66;5050330;28;20803;-76
2022/10/09 09:57:50;;;;;;;2.87;2.20;;;;;;;13.78;72.20;154898.91;5030267;28;20453;-76
2022/10/09 10:00:20;;;;;;;2.67;2.27;;;;;;;13.90;71.10;154931.38;5031895;28;20477;-76
2022/10/09 10:02:47;;;;;;;2.30;2.10;;;;;;;13.92;71.17;154935.28;5051881;28;20453;-76
2022/10/09 10:05:22;;;;;;;2.93;2.37;;;;;;;13.98;70.28;154952.13;5024284;28;20475;-76
2022/10/09 10:07:50;;;;;;;3.73;2.60;;;;;;;14.14;69.74;154991.13;5025342;28;20527;-76
2022/10/09 10:10:22;;;;;;;2.60;2.10;;;;;;;14.20;70.31;155007.97;5033811;28;20451;-73
2022/10/09 10:12:54;;;;;;;3.90;2.50;;;;;;;14.29;68.48;155031.38;5049503;28;20446;-74
2022/10/09 10:15:23;;;;;;;3.27;2.73;;;;;;;14.36;68.89;155048.28;5022787;28;20443;-74
2022/10/09 10:17:57;;;;;;;3.03;2.50;;;;;;;14.35;68.22;155045.72;5047637;28;20490;-75
2022/10/09 10:20:24;;;;;;;6.27;2.17;;;;;;;14.39;67.25;155057.38;5029796;28;20969;-75
2022/10/09 10:22:52;;;;;;;1.60;1.37;;;;;;;14.29;66.85;155031.38;5029637;28;20785;-76
2022/10/09 10:25:22;;;;;;;4.03;2.17;;;;;;;14.30;67.87;155033.94;5045538;28;20812;-74
2022/10/09 10:27:50;;;;;;;2.67;1.60;;;;;;;14.22;67.00;155013.16;5054528;28;20475;-76
2022/10/09 10:30:18;;;;;;;5.17;2.53;;;;;;;14.45;67.54;155072.97;5026824;28;20458;-76
2022/10/09 10:32:51;;;;;;;3.20;2.07;;;;;;;14.42;65.69;155063.88;5028470;28;20487;-76
2022/10/09 10:35:20;;;;;;;2.80;1.80;;;;;;;14.41;66.46;155062.56;5048259;28;20549;-76
2022/10/09 10:37:52;;;;;;;4.03;2.10;;;;;;;14.36;65.99;155048.28;5045989;28;20447;-76
2022/10/09 10:40:23;;;;;;;3.30;2.23;;;;;;;14.45;65.00;155072.97;5029760;28;20525;-76
2022/10/09 10:43:04;;;;;;;2.30;1.60;;;;;;;14.64;66.29;155122.28;5054837;28;20457;-76
2022/10/09 10:45:34;;;;;;;6.07;1.90;;;;;;;14.72;65.78;155141.78;5026502;28;20528;-76
2022/10/09 10:48:02;;;;;;;2.20;1.73;;;;;;;14.73;64.94;155143.09;5053245;28;20479;-76
2022/10/09 10:50:35;;;;;;;2.23;2.00;;;;;;;14.70;64.39;155135.28;5023625;28;20439;-76
2022/10/09 10:53:04;;;;;;;2.40;1.50;;;;;;;14.71;64.09;155139.22;5006168;28;20512;-76
2022/10/09 10:55:40;;;;;;;3.80;2.17;;;;;;;14.73;65.16;155143.09;5009298;28;20669;-76
2022/10/09 10:58:18;;;;;;;2.60;2.30;;;;;;;14.76;65.16;155152.19;5009615;28;20481;-76
2022/10/09 11:00:51;;;;;;;3.60;2.70;;;;;;;14.78;64.60;155156.06;5023691;28;21113;-75
2022/10/09 11:03:35;;;;;;;2.67;2.00;;;;;;;14.81;63.25;155165.19;5028028;28;20455;-75
2022/10/09 11:06:11;;;;;;;2.17;1.90;;;;;;;14.90;63.77;155188.56;5022986;28;20463;-74
2022/10/09 11:08:50;;;;;;;3.07;2.10;;;;;;;14.86;63.72;155176.84;5044104;28;20474;-73
2022/10/09 11:11:22;;;;;;;2.37;1.73;;;;;;;15.02;62.97;155218.44;5027453;28;20450;-74
2022/10/09 11:13:56;;;;;;;3.57;2.00;;;;;;;14.88;63.18;155182.09;5029223;28;20466;-74
2022/10/09 11:16:35;;;;;;;2.67;1.70;;;;;;;15.00;63.13;155213.25;5027668;28;20967;-74
2022/10/09 11:19:20;;;;;;;3.00;2.10;;;;;;;14.92;63.50;155192.47;5044341;28;20460;-74
2022/10/09 11:21:53;;;;;;;2.50;1.60;;;;;;;15.03;64.93;155221.03;5029098;28;20526;-74
2022/10/09 11:24:36;;;;;;;2.23;1.93;;;;;;;15.04;63.53;155223.63;5044959;28;20458;-74
2022/10/09 11:27:10;;;;;;;2.90;2.43;;;;;;;15.09;64.08;155237.91;5042186;28;21044;-74
2022/10/09 11:29:39;;;;;;;2.90;1.87;;;;;;;15.04;63.72;155223.63;5032018;28;20489;-75
2022/10/09 11:32:13;;;;;;;2.13;1.73;;;;;;;15.04;63.56;155224.94;5045652;28;20977;-74